x

Central Caribbean - 210 Nm Sse Of Kingston, Jamaica (42058) Wave Buoy

12:50 - Sun 23rd Nov 2014 All times are EST. -5 hours from GMT.

  • Sig Wave height 6.9ft
  • Swell Direction
  • Peak Period 8s
  • Average Period 6s
  • Wind
    20mph, 25mph gusts
  • Sea Temp 84°f
  • Luft Temp 83°f
  • Sea Pressure 1010.3mb
  • Central Caribbean - 210 Nm Sse Of Kingston, Jamaica
  • Central Caribbean - 210 Nm Sse Of Kingston, Jamaica

More Historic Weather Station data

Upgrade to MSW Pro to gain access to the past 30 days of data for over 8000 Wavebouys and Weather Stations around the globe.

Join Pro

Comparision Forecast

View Surf forecast
   
So 11/23 12:50 7ft 8s 6s 20 25 mph 1010.3mb 84f 83f
11:50 6ft 8s 5s 20 27 mph 1011.6mb 84f 83f
10:50 7ft 8s 6s 22 27 mph 1012.2mb 84f 83f
9:50 6.5ft 8s 5s 22 29 mph 1012.7mb 84f 83f
8:50 7ft 8s 6s 22 27 mph 1012.4mb 84f 83f
7:50 6.5ft 7s 6s 22 27 mph 1011.9mb 84f 83f
6:50 7ft 8s 6s 22 25 mph 1011.3mb 84f 83f
5:50 7ft 7s 6s 20 22 mph 1010.7mb 84f 83f
4:50 7ft 8s 6s 20 22 mph 1010.2mb 84f 82f
3:50 7ft 7s 6s 20 25 mph 1010.1mb 84f 83f
2:50 6ft 7s 5s 20 22 mph 1010.5mb 84f 82f
1:50 6.5ft 8s 6s 20 25 mph 1010.8mb 84f 83f
12:50 7ft 8s 6s 22 27 mph 1011.5mb 84f 83f
Sa 11/22 11:50 7.5ft 8s 6s 22 25 mph 1011.9mb 84f 83f
10:50 7ft 8s 6s 22 27 mph 1012.3mb 84f 83f
9:50 7ft 8s 6s 22 27 mph 1012.1mb 84f 83f
8:50 7ft 8s 6s 22 25 mph 1011.9mb 84f 83f
7:50 7.5ft 8s 6s 22 27 mph 1011.6mb 84f 82f
6:50 7ft 7s 6s 25 31 mph 1011.1mb 84f 82f
5:50 7ft 8s 6s 20 27 mph 1010.8mb 84f 82f
4:50 8ft 8s 6s 20 25 mph 1010.5mb 84f 83f
3:50 8ft 8s 6s 22 27 mph 1010.5mb 84f 83f
2:50 6.5ft 7s 5s 22 27 mph 1010.6mb 84f 83f
1:50 7ft 8s 5s 20 27 mph 1011.2mb 84f 83f
12:50 7.5ft 8s 6s 22 27 mph 1011.9mb 84f 83f
11:50 7ft 9s 6s 22 25 mph 1012.9mb 84f 83f
10:50 7.5ft 7s 6s 22 27 mph 1013.5mb 84f 83f
9:50 7ft 8s 6s 25 27 mph 1013.9mb 84f 83f
8:50 7ft 8s 6s 20 25 mph 1014mb 84f 82f
7:50 7.5ft 8s 6s 20 27 mph 1013.4mb 84f 82f
6:50 7ft 7s 6s 20 27 mph 1012.9mb 84f 83f
5:50 7.5ft 8s 6s 22 27 mph 1012.2mb 84f 83f
4:50 7ft 8s 6s 22 27 mph 1012mb 84f 83f
3:50 7ft 7s 6s 20 25 mph 1011.9mb 84f 83f
2:50 6.5ft 7s 6s 20 25 mph 1012.2mb 84f 83f
1:50 7ft 8s 6s 20 25 mph 1012.5mb 84f 83f
12:50 6.5ft 8s 5s 22 27 mph 1013mb 84f 83f
Fr 11/21 11:50 6ft 8s 5s 20 25 mph 1013.5mb 84f 83f
10:50 6.5ft 8s 6s 20 27 mph 1013.8mb 84f 83f
9:50 6.5ft 8s 5s 20 25 mph 1013.8mb 84f 84f
8:50 6.5ft 8s 5s 20 25 mph 1013.3mb 84f 83f
7:50 6.5ft 8s 6s 22 27 mph 1012.9mb 84f 83f
6:50 7ft 8s 6s 22 25 mph 1012.2mb 84f 84f
5:50 6ft 7s 5s 20 22 mph 1011.9mb 84f 84f
4:50 7ft 8s 6s 22 27 mph 1011.8mb 84f 83f
3:50 6.5ft 7s 6s 20 22 mph 1011.6mb 84f 84f
2:50 6.5ft 7s 5s 20 22 mph 1011.7mb 84f 84f
1:50 7ft 8s 6s 20 27 mph 1011.8mb 84f 84f
12:50 6.5ft 7s 5s 20 25 mph 1012.5mb 84f 83f
11:50 6ft 8s 5s 20 25 mph 1013.3mb 84f 84f
10:50 7ft 8s 6s 20 22 mph 1014.1mb 84f 83f
9:50 6ft 7s 5s 22 25 mph 1014mb 84f 84f
8:50 6.5ft 7s 5s 18 22 mph 1014.1mb 84f 83f
7:50 6.5ft 7s 6s 20 25 mph 1013.6mb 84f 84f
6:50 7ft 7s 5s 20 25 mph 1012.7mb 84f 83f
5:50 6.5ft 8s 5s 22 27 mph 1012mb 84f 83f
4:50 6ft 8s 5s 22 27 mph 1011.5mb 84f 83f
3:50 6ft 7s 5s 18 22 mph 1011.2mb 84f 83f
2:50 6ft 8s 5s 20 22 mph 1011.4mb 84f 83f
1:50 5.5ft 8s 5s 18 27 mph 1011.9mb 84f 81f
12:50 6ft 7s 5s 18 22 mph 1012.5mb 84f 83f
Do 11/20 11:50 5.5ft 8s 5s 18 20 mph 1012.8mb 84f 83f
10:50 5.5ft 8s 5s 20 22 mph 1013mb 84f 83f
9:50 5.5ft 8s 5s 22 25 mph 1012.9mb 84f 83f
8:50 5ft 8s 5s 18 22 mph 1012.5mb 84f 83f
7:50 5.5ft 8s 5s 18 22 mph 1011.8mb 84f 83f
6:50 6ft 7s 5s 18 22 mph 1011.2mb 84f 84f
5:50 5.5ft 7s 5s 18 22 mph 1010.8mb 84f 83f
4:50 5.5ft 8s 5s 20 22 mph 1010.3mb 84f 84f
3:50 6ft 7s 6s 16 20 mph 1010.3mb 84f 84f
2:50 5.5ft 7s 5s 18 22 mph 1010.3mb 84f 83f
1:50 6ft 8s 6s 20 25 mph 1010.6mb 84f 83f
12:50 6ft 8s 5s 18 22 mph 1011.4mb 84f 83f
11:50 6ft 7s 5s 20 22 mph 1012.3mb 84f 84f
10:50 6ft 7s 5s 20 22 mph 1013.3mb 84f 84f
9:50 5.5ft 8s 5s 20 22 mph 1013.3mb 84f 83f
8:50 6ft 8s 6s 20 25 mph 1013.4mb 84f 83f
7:50 6ft 8s 5s 20 22 mph 1012.7mb 84f 83f
6:50 6ft 7s 5s 20 25 mph 1012.2mb 84f 83f
5:50 6.5ft 7s 5s 20 22 mph 1011.7mb 84f 83f
4:50 7ft 8s 6s 20 25 mph 1011.1mb 84f 82f
3:50 6ft 7s 6s 22 27 mph 1011mb 84f 82f
2:50 6ft 8s 5s 20 25 mph 1011.4mb 84f 83f
1:50 6ft 6s 5s 20 22 mph 1011.9mb 84f 83f
12:50 6.5ft 7s 5s 20 22 mph 1012.6mb 84f 83f
Mi 11/19 11:50 6.5ft 8s 6s 22 27 mph 1012.8mb 84f 83f
10:50 6ft 8s 5s 22 27 mph 1013mb 84f 83f
9:50 6ft 8s 5s 22 27 mph 1012.9mb 84f 84f
8:50 6ft 8s 6s 20 25 mph 1012.7mb 84f 83f
7:50 6.5ft 8s 5s 20 25 mph 1011.9mb 84f 83f